sensor_id;sensor_type;location;lat;lon;timestamp;P1;durP1;ratioP1;P2;durP2;ratioP2
15271;SDS011;7737;51.578;7.268;2023-12-28T00:01:40;3.67;;;2.28;;
15271;SDS011;7737;51.578;7.268;2023-12-28T00:04:07;3.33;;;2.30;;
15271;SDS011;7737;51.578;7.268;2023-12-28T00:06:33;3.58;;;2.20;;
15271;SDS011;7737;51.578;7.268;2023-12-28T00:09:00;4.03;;;2.55;;
15271;SDS011;7737;51.578;7.268;2023-12-28T00:11:26;3.22;;;1.98;;
15271;SDS011;7737;51.578;7.268;2023-12-28T00:13:53;4.10;;;1.85;;
15271;SDS011;7737;51.578;7.268;2023-12-28T00:16:19;3.13;;;1.85;;
15271;SDS011;7737;51.578;7.268;2023-12-28T00:18:47;3.47;;;1.95;;
15271;SDS011;7737;51.578;7.268;2023-12-28T00:21:13;3.00;;;1.85;;
15271;SDS011;7737;51.578;7.268;2023-12-28T00:23:40;2.45;;;1.83;;
15271;SDS011;7737;51.578;7.268;2023-12-28T00:26:06;2.75;;;1.95;;
15271;SDS011;7737;51.578;7.268;2023-12-28T00:28:33;2.53;;;2.00;;
15271;SDS011;7737;51.578;7.268;2023-12-28T00:30:59;2.72;;;1.75;;
15271;SDS011;7737;51.578;7.268;2023-12-28T00:33:26;3.55;;;2.00;;
15271;SDS011;7737;51.578;7.268;2023-12-28T00:35:54;2.50;;;2.08;;
15271;SDS011;7737;51.578;7.268;2023-12-28T00:38:20;2.67;;;2.10;;
15271;SDS011;7737;51.578;7.268;2023-12-28T00:40:46;3.13;;;2.00;;
15271;SDS011;7737;51.578;7.268;2023-12-28T00:43:13;3.75;;;2.15;;
15271;SDS011;7737;51.578;7.268;2023-12-28T00:45:39;3.60;;;2.08;;
15271;SDS011;7737;51.578;7.268;2023-12-28T00:48:07;4.55;;;2.00;;
15271;SDS011;7737;51.578;7.268;2023-12-28T00:50:34;2.72;;;1.98;;
15271;SDS011;7737;51.578;7.268;2023-12-28T00:53:02;2.42;;;1.90;;
15271;SDS011;7737;51.578;7.268;2023-12-28T00:55:28;3.30;;;2.10;;
15271;SDS011;7737;51.578;7.268;2023-12-28T00:57:55;5.18;;;2.25;;
15271;SDS011;7737;51.578;7.268;2023-12-28T01:00:21;3.22;;;2.08;;
15271;SDS011;7737;51.578;7.268;2023-12-28T01:02:48;3.53;;;2.03;;
15271;SDS011;7737;51.578;7.268;2023-12-28T01:05:15;3.35;;;1.95;;
15271;SDS011;7737;51.578;7.268;2023-12-28T01:07:42;3.58;;;2.00;;
15271;SDS011;7737;51.578;7.268;2023-12-28T01:10:10;2.42;;;1.80;;
15271;SDS011;7737;51.578;7.268;2023-12-28T01:12:36;4.43;;;2.10;;
15271;SDS011;7737;51.578;7.268;2023-12-28T01:15:03;3.28;;;2.22;;
15271;SDS011;7737;51.578;7.268;2023-12-28T01:17:30;4.80;;;2.00;;
15271;SDS011;7737;51.578;7.268;2023-12-28T01:19:57;3.15;;;1.88;;
15271;SDS011;7737;51.578;7.268;2023-12-28T01:22:23;2.58;;;1.73;;
15271;SDS011;7737;51.578;7.268;2023-12-28T01:24:50;2.60;;;2.05;;
15271;SDS011;7737;51.578;7.268;2023-12-28T01:27:18;2.72;;;2.30;;
15271;SDS011;7737;51.578;7.268;2023-12-28T01:29:44;3.97;;;1.85;;
15271;SDS011;7737;51.578;7.268;2023-12-28T01:32:10;2.20;;;1.90;;
15271;SDS011;7737;51.578;7.268;2023-12-28T01:34:37;4.38;;;2.00;;
15271;SDS011;7737;51.578;7.268;2023-12-28T01:37:03;2.22;;;1.90;;
15271;SDS011;7737;51.578;7.268;2023-12-28T01:39:30;2.72;;;1.65;;
15271;SDS011;7737;51.578;7.268;2023-12-28T01:41:56;2.78;;;1.83;;
15271;SDS011;7737;51.578;7.268;2023-12-28T01:44:24;2.60;;;1.80;;
15271;SDS011;7737;51.578;7.268;2023-12-28T01:46:51;1.77;;;1.60;;
15271;SDS011;7737;51.578;7.268;2023-12-28T01:49:18;2.33;;;1.70;;
15271;SDS011;7737;51.578;7.268;2023-12-28T01:51:45;3.45;;;1.60;;
15271;SDS011;7737;51.578;7.268;2023-12-28T01:54:12;2.55;;;1.67;;
15271;SDS011;7737;51.578;7.268;2023-12-28T01:56:39;2.67;;;1.77;;
15271;SDS011;7737;51.578;7.268;2023-12-28T01:59:05;3.00;;;1.67;;
15271;SDS011;7737;51.578;7.268;2023-12-28T02:01:33;2.95;;;1.50;;
15271;SDS011;7737;51.578;7.268;2023-12-28T02:04:00;3.03;;;1.85;;
15271;SDS011;7737;51.578;7.268;2023-12-28T02:06:27;1.92;;;1.70;;
15271;SDS011;7737;51.578;7.268;2023-12-28T02:08:54;2.65;;;2.00;;
15271;SDS011;7737;51.578;7.268;2023-12-28T02:11:21;2.22;;;2.00;;
15271;SDS011;7737;51.578;7.268;2023-12-28T02:13:47;2.53;;;1.83;;
15271;SDS011;7737;51.578;7.268;2023-12-28T02:16:15;3.50;;;1.60;;
15271;SDS011;7737;51.578;7.268;2023-12-28T02:18:47;2.65;;;1.70;;
15271;SDS011;7737;51.578;7.268;2023-12-28T02:21:16;2.38;;;1.60;;
15271;SDS011;7737;51.578;7.268;2023-12-28T02:23:46;3.38;;;1.77;;
15271;SDS011;7737;51.578;7.268;2023-12-28T02:26:14;2.58;;;2.05;;
15271;SDS011;7737;51.578;7.268;2023-12-28T02:28:41;3.42;;;1.90;;
15271;SDS011;7737;51.578;7.268;2023-12-28T02:31:08;2.20;;;1.70;;
15271;SDS011;7737;51.578;7.268;2023-12-28T02:33:42;2.60;;;1.92;;
15271;SDS011;7737;51.578;7.268;2023-12-28T02:36:14;3.40;;;2.05;;
15271;SDS011;7737;51.578;7.268;2023-12-28T02:38:45;3.85;;;1.83;;
15271;SDS011;7737;51.578;7.268;2023-12-28T02:41:16;2.97;;;1.80;;
15271;SDS011;7737;51.578;7.268;2023-12-28T02:43:43;2.30;;;1.60;;
15271;SDS011;7737;51.578;7.268;2023-12-28T02:46:10;2.42;;;1.90;;
15271;SDS011;7737;51.578;7.268;2023-12-28T02:48:36;2.90;;;1.58;;
15271;SDS011;7737;51.578;7.268;2023-12-28T02:51:03;2.22;;;1.60;;
15271;SDS011;7737;51.578;7.268;2023-12-28T02:53:29;2.28;;;2.00;;
15271;SDS011;7737;51.578;7.268;2023-12-28T02:55:56;2.97;;;1.60;;
15271;SDS011;7737;51.578;7.268;2023-12-28T02:58:24;3.20;;;1.70;;
15271;SDS011;7737;51.578;7.268;2023-12-28T03:00:50;3.70;;;2.00;;
15271;SDS011;7737;51.578;7.268;2023-12-28T03:03:17;2.35;;;1.70;;
15271;SDS011;7737;51.578;7.268;2023-12-28T03:05:43;2.88;;;1.80;;
15271;SDS011;7737;51.578;7.268;2023-12-28T03:08:11;2.63;;;2.08;;
15271;SDS011;7737;51.578;7.268;2023-12-28T03:10:37;3.22;;;1.98;;
15271;SDS011;7737;51.578;7.268;2023-12-28T03:13:04;2.92;;;1.63;;
15271;SDS011;7737;51.578;7.268;2023-12-28T03:15:32;3.33;;;1.95;;
15271;SDS011;7737;51.578;7.268;2023-12-28T03:17:59;3.70;;;2.03;;
15271;SDS011;7737;51.578;7.268;2023-12-28T03:20:25;3.83;;;1.63;;
15271;SDS011;7737;51.578;7.268;2023-12-28T03:22:52;2.78;;;1.70;;
15271;SDS011;7737;51.578;7.268;2023-12-28T03:25:18;4.72;;;1.60;;
15271;SDS011;7737;51.578;7.268;2023-12-28T03:27:45;2.38;;;1.73;;
15271;SDS011;7737;51.578;7.268;2023-12-28T03:30:12;1.90;;;1.35;;
15271;SDS011;7737;51.578;7.268;2023-12-28T03:32:40;2.70;;;1.73;;
15271;SDS011;7737;51.578;7.268;2023-12-28T03:35:06;2.10;;;1.70;;
15271;SDS011;7737;51.578;7.268;2023-12-28T03:37:33;2.30;;;1.80;;
15271;SDS011;7737;51.578;7.268;2023-12-28T03:40:00;4.20;;;1.80;;
15271;SDS011;7737;51.578;7.268;2023-12-28T03:42:27;4.72;;;2.10;;
15271;SDS011;7737;51.578;7.268;2023-12-28T03:44:54;3.03;;;1.70;;
15271;SDS011;7737;51.578;7.268;2023-12-28T03:47:20;2.30;;;1.80;;
15271;SDS011;7737;51.578;7.268;2023-12-28T03:49:49;2.33;;;1.70;;
15271;SDS011;7737;51.578;7.268;2023-12-28T03:52:16;3.85;;;1.80;;
15271;SDS011;7737;51.578;7.268;2023-12-28T03:54:42;2.38;;;1.88;;
15271;SDS011;7737;51.578;7.268;2023-12-28T03:57:09;3.38;;;1.80;;
15271;SDS011;7737;51.578;7.268;2023-12-28T03:59:35;3.17;;;1.90;;
15271;SDS011;7737;51.578;7.268;2023-12-28T04:02:02;4.75;;;1.90;;
15271;SDS011;7737;51.578;7.268;2023-12-28T04:04:28;3.65;;;2.00;;
15271;SDS011;7737;51.578;7.268;2023-12-28T04:06:56;4.13;;;2.10;;
15271;SDS011;7737;51.578;7.268;2023-12-28T04:09:23;4.13;;;2.30;;
15271;SDS011;7737;51.578;7.268;2023-12-28T04:11:49;2.80;;;1.92;;
15271;SDS011;7737;51.578;7.268;2023-12-28T04:14:16;4.20;;;2.05;;
15271;SDS011;7737;51.578;7.268;2023-12-28T04:16:43;2.67;;;1.88;;
15271;SDS011;7737;51.578;7.268;2023-12-28T04:19:09;2.65;;;1.80;;
15271;SDS011;7737;51.578;7.268;2023-12-28T04:21:37;3.83;;;1.88;;
15271;SDS011;7737;51.578;7.268;2023-12-28T04:24:05;2.95;;;2.08;;
15271;SDS011;7737;51.578;7.268;2023-12-28T04:26:32;3.92;;;2.15;;
15271;SDS011;7737;51.578;7.268;2023-12-28T04:28:58;3.55;;;1.70;;
15271;SDS011;7737;51.578;7.268;2023-12-28T04:31:25;3.08;;;1.90;;
15271;SDS011;7737;51.578;7.268;2023-12-28T04:33:52;3.33;;;1.70;;
15271;SDS011;7737;51.578;7.268;2023-12-28T04:36:18;2.65;;;1.60;;
15271;SDS011;7737;51.578;7.268;2023-12-28T04:38:45;2.92;;;1.92;;
15271;SDS011;7737;51.578;7.268;2023-12-28T04:41:13;3.20;;;2.00;;
15271;SDS011;7737;51.578;7.268;2023-12-28T04:43:39;4.15;;;1.88;;
15271;SDS011;7737;51.578;7.268;2023-12-28T04:46:06;3.13;;;1.92;;
15271;SDS011;7737;51.578;7.268;2023-12-28T04:48:32;2.03;;;1.63;;
15271;SDS011;7737;51.578;7.268;2023-12-28T04:51:01;3.42;;;1.98;;
15271;SDS011;7737;51.578;7.268;2023-12-28T04:53:28;4.35;;;2.47;;
15271;SDS011;7737;51.578;7.268;2023-12-28T04:55:55;4.57;;;2.00;;
15271;SDS011;7737;51.578;7.268;2023-12-28T04:58:23;2.60;;;1.73;;
15271;SDS011;7737;51.578;7.268;2023-12-28T05:00:49;3.05;;;2.05;;
15271;SDS011;7737;51.578;7.268;2023-12-28T05:03:16;3.42;;;1.70;;
15271;SDS011;7737;51.578;7.268;2023-12-28T05:05:42;3.10;;;1.83;;
15271;SDS011;7737;51.578;7.268;2023-12-28T05:08:09;3.33;;;1.67;;
15271;SDS011;7737;51.578;7.268;2023-12-28T05:10:35;2.45;;;1.83;;
15271;SDS011;7737;51.578;7.268;2023-12-28T05:13:02;2.97;;;1.58;;
15271;SDS011;7737;51.578;7.268;2023-12-28T05:15:30;2.58;;;1.65;;
15271;SDS011;7737;51.578;7.268;2023-12-28T05:17:57;3.63;;;1.65;;
15271;SDS011;7737;51.578;7.268;2023-12-28T05:20:23;5.13;;;1.80;;
15271;SDS011;7737;51.578;7.268;2023-12-28T05:22:50;3.83;;;1.77;;
15271;SDS011;7737;51.578;7.268;2023-12-28T05:25:16;3.63;;;1.60;;
15271;SDS011;7737;51.578;7.268;2023-12-28T05:27:43;3.42;;;1.60;;
15271;SDS011;7737;51.578;7.268;2023-12-28T05:30:10;3.92;;;1.52;;
15271;SDS011;7737;51.578;7.268;2023-12-28T05:32:38;3.15;;;1.48;;
15271;SDS011;7737;51.578;7.268;2023-12-28T05:35:05;4.68;;;1.88;;
15271;SDS011;7737;51.578;7.268;2023-12-28T05:37:32;3.97;;;1.80;;
15271;SDS011;7737;51.578;7.268;2023-12-28T05:39:58;4.97;;;1.90;;
15271;SDS011;7737;51.578;7.268;2023-12-28T05:42:25;2.90;;;1.60;;
15271;SDS011;7737;51.578;7.268;2023-12-28T05:44:51;3.35;;;1.70;;
15271;SDS011;7737;51.578;7.268;2023-12-28T05:47:18;3.33;;;1.50;;
15271;SDS011;7737;51.578;7.268;2023-12-28T05:49:46;3.38;;;1.50;;
15271;SDS011;7737;51.578;7.268;2023-12-28T05:52:12;2.72;;;1.48;;
15271;SDS011;7737;51.578;7.268;2023-12-28T05:54:40;3.40;;;1.55;;
15271;SDS011;7737;51.578;7.268;2023-12-28T05:57:07;4.43;;;1.73;;
15271;SDS011;7737;51.578;7.268;2023-12-28T05:59:37;5.78;;;1.75;;
15271;SDS011;7737;51.578;7.268;2023-12-28T06:02:03;3.35;;;1.67;;
15271;SDS011;7737;51.578;7.268;2023-12-28T06:04:30;4.30;;;1.40;;
15271;SDS011;7737;51.578;7.268;2023-12-28T06:06:59;2.40;;;1.50;;
15271;SDS011;7737;51.578;7.268;2023-12-28T06:09:26;4.30;;;1.50;;
15271;SDS011;7737;51.578;7.268;2023-12-28T06:11:52;2.67;;;1.65;;
15271;SDS011;7737;51.578;7.268;2023-12-28T06:14:19;4.85;;;1.80;;
15271;SDS011;7737;51.578;7.268;2023-12-28T06:16:45;2.90;;;1.73;;
15271;SDS011;7737;51.578;7.268;2023-12-28T06:19:12;2.25;;;1.50;;
15271;SDS011;7737;51.578;7.268;2023-12-28T06:21:38;2.42;;;1.50;;
15271;SDS011;7737;51.578;7.268;2023-12-28T06:24:08;3.03;;;1.83;;
15271;SDS011;7737;51.578;7.268;2023-12-28T06:26:38;3.38;;;1.50;;
15271;SDS011;7737;51.578;7.268;2023-12-28T06:29:05;2.00;;;1.38;;
15271;SDS011;7737;51.578;7.268;2023-12-28T06:31:31;3.83;;;1.50;;
15271;SDS011;7737;51.578;7.268;2023-12-28T06:34:00;3.05;;;1.40;;
15271;SDS011;7737;51.578;7.268;2023-12-28T06:36:27;4.45;;;1.60;;
15271;SDS011;7737;51.578;7.268;2023-12-28T06:38:54;3.92;;;1.50;;
15271;SDS011;7737;51.578;7.268;2023-12-28T06:41:21;3.72;;;1.25;;
15271;SDS011;7737;51.578;7.268;2023-12-28T06:43:48;3.20;;;1.40;;
15271;SDS011;7737;51.578;7.268;2023-12-28T06:46:15;4.53;;;1.60;;
15271;SDS011;7737;51.578;7.268;2023-12-28T06:48:41;4.93;;;1.90;;
15271;SDS011;7737;51.578;7.268;2023-12-28T06:51:08;4.25;;;1.73;;
15271;SDS011;7737;51.578;7.268;2023-12-28T06:53:35;3.90;;;1.50;;
15271;SDS011;7737;51.578;7.268;2023-12-28T06:56:02;4.10;;;1.55;;
15271;SDS011;7737;51.578;7.268;2023-12-28T06:58:30;5.65;;;1.63;;
15271;SDS011;7737;51.578;7.268;2023-12-28T07:00:56;4.22;;;1.98;;
15271;SDS011;7737;51.578;7.268;2023-12-28T07:03:23;3.80;;;1.67;;
15271;SDS011;7737;51.578;7.268;2023-12-28T07:05:50;4.30;;;1.92;;
15271;SDS011;7737;51.578;7.268;2023-12-28T07:08:16;4.30;;;1.60;;
15271;SDS011;7737;51.578;7.268;2023-12-28T07:10:43;3.83;;;1.70;;
15271;SDS011;7737;51.578;7.268;2023-12-28T07:13:09;3.65;;;1.60;;
15271;SDS011;7737;51.578;7.268;2023-12-28T07:15:37;2.80;;;1.45;;
15271;SDS011;7737;51.578;7.268;2023-12-28T07:18:04;3.22;;;1.58;;
15271;SDS011;7737;51.578;7.268;2023-12-28T07:20:30;4.47;;;1.73;;
15271;SDS011;7737;51.578;7.268;2023-12-28T07:22:57;5.30;;;1.48;;
15271;SDS011;7737;51.578;7.268;2023-12-28T07:25:23;4.90;;;1.60;;
15271;SDS011;7737;51.578;7.268;2023-12-28T07:27:50;3.92;;;1.50;;
15271;SDS011;7737;51.578;7.268;2023-12-28T07:30:17;3.40;;;1.45;;
15271;SDS011;7737;51.578;7.268;2023-12-28T07:32:44;4.30;;;1.88;;
15271;SDS011;7737;51.578;7.268;2023-12-28T07:35:11;4.60;;;1.60;;
15271;SDS011;7737;51.578;7.268;2023-12-28T07:37:38;6.88;;;2.00;;
15271;SDS011;7737;51.578;7.268;2023-12-28T07:40:05;4.20;;;2.20;;
15271;SDS011;7737;51.578;7.268;2023-12-28T07:42:32;5.18;;;1.90;;
15271;SDS011;7737;51.578;7.268;2023-12-28T07:44:59;7.55;;;2.20;;
15271;SDS011;7737;51.578;7.268;2023-12-28T07:47:26;5.32;;;2.15;;
15271;SDS011;7737;51.578;7.268;2023-12-28T07:49:54;3.88;;;1.90;;
15271;SDS011;7737;51.578;7.268;2023-12-28T07:52:21;6.15;;;1.90;;
15271;SDS011;7737;51.578;7.268;2023-12-28T07:54:47;4.75;;;2.00;;
15271;SDS011;7737;51.578;7.268;2023-12-28T07:57:14;4.25;;;1.50;;
15271;SDS011;7737;51.578;7.268;2023-12-28T07:59:40;6.63;;;1.70;;
15271;SDS011;7737;51.578;7.268;2023-12-28T08:02:07;7.45;;;1.95;;
15271;SDS011;7737;51.578;7.268;2023-12-28T08:04:34;4.78;;;1.40;;
15271;SDS011;7737;51.578;7.268;2023-12-28T08:07:02;5.80;;;1.92;;
15271;SDS011;7737;51.578;7.268;2023-12-28T08:09:29;3.47;;;1.58;;
15271;SDS011;7737;51.578;7.268;2023-12-28T08:11:55;4.82;;;1.50;;
15271;SDS011;7737;51.578;7.268;2023-12-28T08:14:22;6.15;;;1.92;;
15271;SDS011;7737;51.578;7.268;2023-12-28T08:16:49;3.63;;;1.70;;
15271;SDS011;7737;51.578;7.268;2023-12-28T08:19:15;5.50;;;1.70;;
15271;SDS011;7737;51.578;7.268;2023-12-28T08:21:42;4.82;;;2.10;;
15271;SDS011;7737;51.578;7.268;2023-12-28T08:24:10;5.55;;;1.70;;
15271;SDS011;7737;51.578;7.268;2023-12-28T08:26:36;6.45;;;1.75;;
15271;SDS011;7737;51.578;7.268;2023-12-28T08:29:03;8.15;;;1.67;;
15271;SDS011;7737;51.578;7.268;2023-12-28T08:31:29;4.88;;;1.30;;
15271;SDS011;7737;51.578;7.268;2023-12-28T08:33:56;5.75;;;1.70;;
15271;SDS011;7737;51.578;7.268;2023-12-28T08:36:22;8.10;;;1.95;;
15271;SDS011;7737;51.578;7.268;2023-12-28T08:38:49;7.30;;;1.85;;
15271;SDS011;7737;51.578;7.268;2023-12-28T08:41:20;5.97;;;1.70;;
15271;SDS011;7737;51.578;7.268;2023-12-28T08:43:49;6.03;;;1.70;;
15271;SDS011;7737;51.578;7.268;2023-12-28T08:46:17;6.43;;;1.75;;
15271;SDS011;7737;51.578;7.268;2023-12-28T08:48:44;6.57;;;1.77;;
15271;SDS011;7737;51.578;7.268;2023-12-28T08:51:10;6.57;;;1.70;;
15271;SDS011;7737;51.578;7.268;2023-12-28T08:53:39;4.97;;;1.48;;
15271;SDS011;7737;51.578;7.268;2023-12-28T08:56:12;5.68;;;1.58;;
15271;SDS011;7737;51.578;7.268;2023-12-28T08:58:41;6.40;;;1.92;;
15271;SDS011;7737;51.578;7.268;2023-12-28T09:01:07;7.00;;;1.85;;
15271;SDS011;7737;51.578;7.268;2023-12-28T09:03:34;5.07;;;1.60;;
15271;SDS011;7737;51.578;7.268;2023-12-28T09:06:00;7.95;;;1.80;;
15271;SDS011;7737;51.578;7.268;2023-12-28T09:08:27;4.70;;;1.73;;
15271;SDS011;7737;51.578;7.268;2023-12-28T09:10:53;5.63;;;1.70;;
15271;SDS011;7737;51.578;7.268;2023-12-28T09:13:20;6.30;;;1.95;;
15271;SDS011;7737;51.578;7.268;2023-12-28T09:15:48;5.03;;;1.67;;
15271;SDS011;7737;51.578;7.268;2023-12-28T09:18:15;7.63;;;1.70;;
15271;SDS011;7737;51.578;7.268;2023-12-28T09:20:42;7.18;;;1.60;;
15271;SDS011;7737;51.578;7.268;2023-12-28T09:23:09;7.53;;;1.85;;
15271;SDS011;7737;51.578;7.268;2023-12-28T09:25:36;6.40;;;1.92;;
15271;SDS011;7737;51.578;7.268;2023-12-28T09:28:04;6.88;;;2.15;;
15271;SDS011;7737;51.578;7.268;2023-12-28T09:30:31;8.70;;;2.80;;
15271;SDS011;7737;51.578;7.268;2023-12-28T09:32:59;7.07;;;2.10;;
15271;SDS011;7737;51.578;7.268;2023-12-28T09:35:25;8.45;;;1.70;;
15271;SDS011;7737;51.578;7.268;2023-12-28T09:37:52;6.57;;;2.10;;
15271;SDS011;7737;51.578;7.268;2023-12-28T09:40:19;7.43;;;2.80;;
15271;SDS011;7737;51.578;7.268;2023-12-28T09:42:48;8.38;;;2.50;;
15271;SDS011;7737;51.578;7.268;2023-12-28T09:45:18;4.97;;;1.73;;
15271;SDS011;7737;51.578;7.268;2023-12-28T09:47:45;6.53;;;1.95;;
15271;SDS011;7737;51.578;7.268;2023-12-28T09:50:17;6.43;;;1.88;;
15271;SDS011;7737;51.578;7.268;2023-12-28T09:52:44;6.78;;;2.03;;
15271;SDS011;7737;51.578;7.268;2023-12-28T09:55:11;7.15;;;1.90;;
15271;SDS011;7737;51.578;7.268;2023-12-28T09:57:38;7.88;;;2.03;;
15271;SDS011;7737;51.578;7.268;2023-12-28T10:00:06;9.35;;;2.17;;
15271;SDS011;7737;51.578;7.268;2023-12-28T10:02:34;6.38;;;1.98;;
15271;SDS011;7737;51.578;7.268;2023-12-28T10:05:02;6.63;;;2.03;;
15271;SDS011;7737;51.578;7.268;2023-12-28T10:07:35;7.15;;;2.00;;
15271;SDS011;7737;51.578;7.268;2023-12-28T10:10:07;6.72;;;2.20;;
15271;SDS011;7737;51.578;7.268;2023-12-28T10:12:34;8.43;;;2.20;;
15271;SDS011;7737;51.578;7.268;2023-12-28T10:15:00;6.63;;;1.90;;
15271;SDS011;7737;51.578;7.268;2023-12-28T10:17:27;8.55;;;2.00;;
15271;SDS011;7737;51.578;7.268;2023-12-28T10:19:54;7.53;;;2.38;;
15271;SDS011;7737;51.578;7.268;2023-12-28T10:22:21;5.82;;;1.63;;
15271;SDS011;7737;51.578;7.268;2023-12-28T10:24:49;8.10;;;2.08;;
15271;SDS011;7737;51.578;7.268;2023-12-28T10:27:15;6.35;;;1.95;;
15271;SDS011;7737;51.578;7.268;2023-12-28T10:29:42;4.95;;;1.77;;
15271;SDS011;7737;51.578;7.268;2023-12-28T10:32:08;5.85;;;2.00;;
15271;SDS011;7737;51.578;7.268;2023-12-28T10:34:35;8.38;;;1.98;;
15271;SDS011;7737;51.578;7.268;2023-12-28T10:37:02;10.63;;;1.90;;
15271;SDS011;7737;51.578;7.268;2023-12-28T10:39:31;9.10;;;1.83;;
15271;SDS011;7737;51.578;7.268;2023-12-28T10:42:02;7.30;;;1.77;;
15271;SDS011;7737;51.578;7.268;2023-12-28T10:44:35;5.28;;;1.83;;
15271;SDS011;7737;51.578;7.268;2023-12-28T10:47:08;6.90;;;2.47;;
15271;SDS011;7737;51.578;7.268;2023-12-28T10:49:41;8.48;;;2.00;;
15271;SDS011;7737;51.578;7.268;2023-12-28T10:52:10;6.93;;;2.25;;
15271;SDS011;7737;51.578;7.268;2023-12-28T10:54:41;5.60;;;1.75;;
15271;SDS011;7737;51.578;7.268;2023-12-28T10:57:16;7.93;;;2.00;;
15271;SDS011;7737;51.578;7.268;2023-12-28T10:59:53;7.68;;;2.00;;
15271;SDS011;7737;51.578;7.268;2023-12-28T11:02:31;8.05;;;2.00;;
15271;SDS011;7737;51.578;7.268;2023-12-28T11:05:04;6.03;;;1.77;;
15271;SDS011;7737;51.578;7.268;2023-12-28T11:07:31;6.40;;;2.05;;
15271;SDS011;7737;51.578;7.268;2023-12-28T11:09:59;8.45;;;2.08;;
15271;SDS011;7737;51.578;7.268;2023-12-28T11:12:31;6.97;;;2.08;;
15271;SDS011;7737;51.578;7.268;2023-12-28T11:14:58;8.00;;;1.88;;
15271;SDS011;7737;51.578;7.268;2023-12-28T11:17:25;5.43;;;1.70;;
15271;SDS011;7737;51.578;7.268;2023-12-28T11:19:54;7.78;;;1.90;;
15271;SDS011;7737;51.578;7.268;2023-12-28T11:22:21;7.45;;;2.08;;
15271;SDS011;7737;51.578;7.268;2023-12-28T11:24:48;6.65;;;1.90;;
15271;SDS011;7737;51.578;7.268;2023-12-28T11:27:18;6.40;;;1.60;;
15271;SDS011;7737;51.578;7.268;2023-12-28T11:29:46;6.72;;;1.88;;
15271;SDS011;7737;51.578;7.268;2023-12-28T11:32:14;5.93;;;1.50;;
15271;SDS011;7737;51.578;7.268;2023-12-28T11:34:40;6.70;;;2.13;;
15271;SDS011;7737;51.578;7.268;2023-12-28T11:37:07;8.45;;;2.30;;
15271;SDS011;7737;51.578;7.268;2023-12-28T11:39:38;7.97;;;1.92;;
15271;SDS011;7737;51.578;7.268;2023-12-28T11:42:05;6.60;;;1.77;;
15271;SDS011;7737;51.578;7.268;2023-12-28T11:44:36;6.03;;;1.70;;
15271;SDS011;7737;51.578;7.268;2023-12-28T11:47:11;9.15;;;1.95;;
15271;SDS011;7737;51.578;7.268;2023-12-28T11:49:38;7.85;;;1.73;;
15271;SDS011;7737;51.578;7.268;2023-12-28T11:52:06;7.68;;;1.80;;
15271;SDS011;7737;51.578;7.268;2023-12-28T11:54:33;8.15;;;1.63;;
15271;SDS011;7737;51.578;7.268;2023-12-28T11:56:59;9.18;;;1.80;;
15271;SDS011;7737;51.578;7.268;2023-12-28T11:59:26;8.48;;;2.13;;
15271;SDS011;7737;51.578;7.268;2023-12-28T12:01:53;8.75;;;1.80;;
15271;SDS011;7737;51.578;7.268;2023-12-28T12:04:21;7.93;;;2.10;;
15271;SDS011;7737;51.578;7.268;2023-12-28T12:06:48;7.32;;;1.75;;
15271;SDS011;7737;51.578;7.268;2023-12-28T12:09:15;7.22;;;1.83;;
15271;SDS011;7737;51.578;7.268;2023-12-28T12:11:43;7.00;;;1.98;;
15271;SDS011;7737;51.578;7.268;2023-12-28T12:14:10;6.57;;;1.80;;
15271;SDS011;7737;51.578;7.268;2023-12-28T12:16:37;5.43;;;1.73;;
15271;SDS011;7737;51.578;7.268;2023-12-28T12:19:04;6.85;;;1.88;;
15271;SDS011;7737;51.578;7.268;2023-12-28T12:21:33;7.93;;;2.05;;
15271;SDS011;7737;51.578;7.268;2023-12-28T12:24:00;6.93;;;1.50;;
15271;SDS011;7737;51.578;7.268;2023-12-28T12:26:27;7.75;;;2.25;;
15271;SDS011;7737;51.578;7.268;2023-12-28T12:28:54;6.72;;;1.90;;
15271;SDS011;7737;51.578;7.268;2023-12-28T12:31:21;8.85;;;1.95;;
15271;SDS011;7737;51.578;7.268;2023-12-28T12:33:48;8.50;;;1.77;;
15271;SDS011;7737;51.578;7.268;2023-12-28T12:36:15;7.55;;;1.77;;
15271;SDS011;7737;51.578;7.268;2023-12-28T12:38:43;9.93;;;2.13;;
15271;SDS011;7737;51.578;7.268;2023-12-28T12:41:10;7.97;;;1.88;;
15271;SDS011;7737;51.578;7.268;2023-12-28T12:43:37;6.15;;;1.73;;
15271;SDS011;7737;51.578;7.268;2023-12-28T12:46:06;7.68;;;1.90;;
15271;SDS011;7737;51.578;7.268;2023-12-28T12:48:33;6.85;;;1.85;;
15271;SDS011;7737;51.578;7.268;2023-12-28T12:51:01;6.97;;;1.70;;
15271;SDS011;7737;51.578;7.268;2023-12-28T12:53:32;8.57;;;1.80;;
15271;SDS011;7737;51.578;7.268;2023-12-28T12:56:00;7.57;;;1.98;;
15271;SDS011;7737;51.578;7.268;2023-12-28T12:58:28;7.60;;;1.65;;
15271;SDS011;7737;51.578;7.268;2023-12-28T13:00:56;6.70;;;1.80;;
15271;SDS011;7737;51.578;7.268;2023-12-28T13:03:27;11.45;;;2.75;;
15271;SDS011;7737;51.578;7.268;2023-12-28T13:05:54;6.93;;;1.88;;
15271;SDS011;7737;51.578;7.268;2023-12-28T13:08:21;8.30;;;1.70;;
15271;SDS011;7737;51.578;7.268;2023-12-28T13:10:48;7.15;;;2.20;;
15271;SDS011;7737;51.578;7.268;2023-12-28T13:13:16;6.70;;;2.28;;
15271;SDS011;7737;51.578;7.268;2023-12-28T13:15:42;8.35;;;2.10;;
15271;SDS011;7737;51.578;7.268;2023-12-28T13:18:09;6.82;;;1.92;;
15271;SDS011;7737;51.578;7.268;2023-12-28T13:20:35;8.32;;;2.30;;
15271;SDS011;7737;51.578;7.268;2023-12-28T13:23:02;9.23;;;3.05;;
15271;SDS011;7737;51.578;7.268;2023-12-28T13:25:29;7.65;;;1.83;;
15271;SDS011;7737;51.578;7.268;2023-12-28T13:27:55;8.60;;;2.00;;
15271;SDS011;7737;51.578;7.268;2023-12-28T13:30:23;8.02;;;2.08;;
15271;SDS011;7737;51.578;7.268;2023-12-28T13:32:53;8.20;;;2.10;;
15271;SDS011;7737;51.578;7.268;2023-12-28T13:35:19;8.27;;;2.13;;
15271;SDS011;7737;51.578;7.268;2023-12-28T13:37:46;8.25;;;1.73;;
15271;SDS011;7737;51.578;7.268;2023-12-28T13:40:13;6.57;;;1.67;;
15271;SDS011;7737;51.578;7.268;2023-12-28T13:42:40;8.20;;;2.05;;
15271;SDS011;7737;51.578;7.268;2023-12-28T13:45:07;7.07;;;1.63;;
15271;SDS011;7737;51.578;7.268;2023-12-28T13:47:35;9.93;;;1.90;;
15271;SDS011;7737;51.578;7.268;2023-12-28T13:50:02;5.70;;;1.70;;
15271;SDS011;7737;51.578;7.268;2023-12-28T13:52:29;7.57;;;2.00;;
15271;SDS011;7737;51.578;7.268;2023-12-28T13:54:55;6.43;;;1.60;;
15271;SDS011;7737;51.578;7.268;2023-12-28T13:57:22;9.45;;;2.05;;
15271;SDS011;7737;51.578;7.268;2023-12-28T13:59:48;9.73;;;1.95;;
15271;SDS011;7737;51.578;7.268;2023-12-28T14:02:15;11.07;;;2.25;;
15271;SDS011;7737;51.578;7.268;2023-12-28T14:04:43;9.38;;;2.45;;
15271;SDS011;7737;51.578;7.268;2023-12-28T14:07:10;8.85;;;2.30;;
15271;SDS011;7737;51.578;7.268;2023-12-28T14:09:37;6.07;;;1.65;;
15271;SDS011;7737;51.578;7.268;2023-12-28T14:12:04;6.53;;;1.70;;
15271;SDS011;7737;51.578;7.268;2023-12-28T14:14:30;7.80;;;2.13;;
15271;SDS011;7737;51.578;7.268;2023-12-28T14:16:57;8.63;;;2.38;;
15271;SDS011;7737;51.578;7.268;2023-12-28T14:19:23;7.88;;;2.10;;
15271;SDS011;7737;51.578;7.268;2023-12-28T14:21:52;7.93;;;1.90;;
15271;SDS011;7737;51.578;7.268;2023-12-28T14:24:19;6.25;;;1.92;;
15271;SDS011;7737;51.578;7.268;2023-12-28T14:26:46;9.30;;;3.42;;
15271;SDS011;7737;51.578;7.268;2023-12-28T14:29:14;6.88;;;2.00;;
15271;SDS011;7737;51.578;7.268;2023-12-28T14:31:41;7.38;;;2.22;;
15271;SDS011;7737;51.578;7.268;2023-12-28T14:34:09;8.52;;;2.50;;
15271;SDS011;7737;51.578;7.268;2023-12-28T14:36:36;9.05;;;2.40;;
15271;SDS011;7737;51.578;7.268;2023-12-28T14:39:06;9.07;;;1.70;;
15271;SDS011;7737;51.578;7.268;2023-12-28T14:41:33;10.95;;;4.28;;
15271;SDS011;7737;51.578;7.268;2023-12-28T14:44:00;7.63;;;2.20;;
15271;SDS011;7737;51.578;7.268;2023-12-28T14:46:27;6.20;;;1.95;;
15271;SDS011;7737;51.578;7.268;2023-12-28T14:48:54;5.35;;;2.00;;
15271;SDS011;7737;51.578;7.268;2023-12-28T14:51:22;6.03;;;2.40;;
15271;SDS011;7737;51.578;7.268;2023-12-28T14:53:48;6.35;;;2.40;;
15271;SDS011;7737;51.578;7.268;2023-12-28T14:56:16;8.20;;;2.90;;
15271;SDS011;7737;51.578;7.268;2023-12-28T14:58:43;8.10;;;2.47;;
15271;SDS011;7737;51.578;7.268;2023-12-28T15:01:11;6.55;;;2.53;;